Time;durP1;ratioP1;P1;durP2;ratioP2;P2;SDS_P1;SDS_P2;PMS_P1;PMS_P2;Temp;Humidity;BMP_temperature;BMP_pressure;BME280_temperature;BME280_humidity;BME280_pressure;Samples;Min_cycle;Max_cycle;Signal;HPM_P1;HPM_P2
2023/11/08 00:00:18;;;;;;;;;;;10.20;84.20;;;;;;5113078;28;19911;-67
2023/11/08 00:02:44;;;;;;;;;;;10.20;84.20;;;;;;5114237;28;19952;-68
2023/11/08 00:05:10;;;;;;;;;;;10.10;84.20;;;;;;5113609;28;19998;-67
2023/11/08 00:07:36;;;;;;;;;;;10.10;84.40;;;;;;5113917;28;20010;-68
2023/11/08 00:10:02;;;;;;;;;;;10.00;84.30;;;;;;5113417;28;19915;-69
2023/11/08 00:12:28;;;;;;;;;;;10.00;84.30;;;;;;5112094;28;19924;-68
2023/11/08 00:14:56;;;;;;;;;;;10.00;84.30;;;;;;5112452;28;19933;-68
2023/11/08 00:17:23;;;;;;;;;;;10.00;84.30;;;;;;5095620;28;19973;-68
2023/11/08 00:19:49;;;;;;;;;;;9.90;84.50;;;;;;5113371;28;19941;-67
2023/11/08 00:22:15;;;;;;;;;;;9.90;84.50;;;;;;5111370;28;19923;-68
2023/11/08 00:24:41;;;;;;;;;;;9.90;84.50;;;;;;5112428;28;19918;-68
2023/11/08 00:27:07;;;;;;;;;;;9.90;84.60;;;;;;5113614;28;20269;-69
2023/11/08 00:29:33;;;;;;;;;;;9.80;84.30;;;;;;5112165;28;20018;-67
2023/11/08 00:31:59;;;;;;;;;;;9.80;84.40;;;;;;5111499;28;19927;-69
2023/11/08 00:34:24;;;;;;;;;;;9.80;84.30;;;;;;5112126;28;19922;-69
2023/11/08 00:36:50;;;;;;;;;;;9.70;84.30;;;;;;5113381;28;20426;-67
2023/11/08 00:39:18;;;;;;;;;;;9.70;84.10;;;;;;5111476;28;19918;-68
2023/11/08 00:41:44;;;;;;;;;;;9.60;83.70;;;;;;5113051;28;20288;-69
2023/11/08 00:44:09;;;;;;;;;;;9.60;83.40;;;;;;5113357;28;19919;-68
2023/11/08 00:46:36;;;;;;;;;;;9.60;84.00;;;;;;5113306;28;19946;-69
2023/11/08 00:49:03;;;;;;;;;;;9.50;83.80;;;;;;5094767;28;19916;-68
2023/11/08 00:51:30;;;;;;;;;;;9.50;83.80;;;;;;5112817;28;19920;-69
2023/11/08 00:53:56;;;;;;;;;;;9.50;83.60;;;;;;5111959;28;20276;-69
2023/11/08 00:56:21;;;;;;;;;;;9.50;83.60;;;;;;5111789;28;20022;-67
2023/11/08 00:58:47;;;;;;;;;;;9.60;83.70;;;;;;5111868;28;20257;-67
2023/11/08 01:01:13;;;;;;;;;;;9.60;83.40;;;;;;5111216;28;19920;-68
2023/11/08 01:03:39;;;;;;;;;;;9.50;83.30;;;;;;5111895;28;19936;-69
2023/11/08 01:06:05;;;;;;;;;;;9.60;83.10;;;;;;5111660;28;20367;-69
2023/11/08 01:08:31;;;;;;;;;;;9.60;82.80;;;;;;5111537;28;19957;-69
2023/11/08 01:10:58;;;;;;;;;;;9.70;82.80;;;;;;5111161;28;19922;-68
2023/11/08 01:13:24;;;;;;;;;;;9.70;82.40;;;;;;5112874;28;19961;-68
2023/11/08 01:15:50;;;;;;;;;;;9.70;82.10;;;;;;5112968;28;20380;-67
2023/11/08 01:18:16;;;;;;;;;;;9.70;82.00;;;;;;5115989;28;19915;-69
2023/11/08 01:20:42;;;;;;;;;;;9.80;81.90;;;;;;5115160;28;19915;-68
2023/11/08 01:23:09;;;;;;;;;;;9.80;81.70;;;;;;5115461;28;20314;-68
2023/11/08 01:25:35;;;;;;;;;;;9.80;81.00;;;;;;5116673;28;19915;-68
2023/11/08 01:28:01;;;;;;;;;;;9.90;80.90;;;;;;5098352;28;19919;-69
2023/11/08 01:30:27;;;;;;;;;;;9.90;80.90;;;;;;5114706;28;19985;-68
2023/11/08 01:32:54;;;;;;;;;;;9.90;81.50;;;;;;5115316;28;20018;-68
2023/11/08 01:35:20;;;;;;;;;;;9.90;81.40;;;;;;5115214;28;19919;-67
2023/11/08 01:37:46;;;;;;;;;;;9.90;81.50;;;;;;5116825;28;19912;-68
2023/11/08 01:40:12;;;;;;;;;;;9.90;81.40;;;;;;5114351;28;19930;-69
2023/11/08 01:42:38;;;;;;;;;;;9.90;81.50;;;;;;5116890;27;19912;-68
2023/11/08 01:45:04;;;;;;;;;;;10.00;81.60;;;;;;5115286;28;19989;-67
2023/11/08 01:47:34;;;;;;;;;;;9.90;81.40;;;;;;5116521;28;20353;-68
2023/11/08 01:50:03;;;;;;;;;;;9.90;81.40;;;;;;5116338;28;19969;-68
2023/11/08 01:52:30;;;;;;;;;;;9.80;81.50;;;;;;5114789;28;19977;-69
2023/11/08 01:54:56;;;;;;;;;;;9.80;81.70;;;;;;5098183;28;19963;-68
2023/11/08 01:57:23;;;;;;;;;;;9.70;81.80;;;;;;5114498;28;19931;-68
2023/11/08 01:59:51;;;;;;;;;;;9.70;81.40;;;;;;5114821;28;19918;-68
2023/11/08 02:02:20;;;;;;;;;;;9.60;81.90;;;;;;5114269;28;19919;-68
2023/11/08 02:04:47;;;;;;;;;;;9.60;82.00;;;;;;5116004;28;19919;-67
2023/11/08 02:07:13;;;;;;;;;;;9.60;81.90;;;;;;5114643;28;19946;-68
2023/11/08 02:09:38;;;;;;;;;;;9.50;81.90;;;;;;5115702;28;19916;-68
2023/11/08 02:12:05;;;;;;;;;;;9.50;81.30;;;;;;5097014;28;20287;-68
2023/11/08 02:14:30;;;;;;;;;;;9.30;80.40;;;;;;5097611;28;19922;-69
2023/11/08 02:16:56;;;;;;;;;;;9.20;81.50;;;;;;5114624;28;19916;-68
2023/11/08 02:19:23;;;;;;;;;;;9.20;81.60;;;;;;5114202;28;19916;-69
2023/11/08 02:21:49;;;;;;;;;;;9.10;81.50;;;;;;5115445;28;19915;-69
2023/11/08 02:24:33;;;;;;;;;;;9.10;81.50;;;;;;5097260;28;19927;-67
2023/11/08 02:26:59;;;;;;;;;;;9.00;81.50;;;;;;5114340;28;20284;-69
2023/11/08 02:29:25;;;;;;;;;;;8.90;81.70;;;;;;5115323;28;20010;-69
2023/11/08 02:31:51;;;;;;;;;;;8.90;81.80;;;;;;5115014;27;20006;-67
2023/11/08 02:34:17;;;;;;;;;;;8.90;81.80;;;;;;5115414;28;19916;-67
2023/11/08 02:36:43;;;;;;;;;;;8.80;80.90;;;;;;5115508;28;19957;-67
2023/11/08 02:39:09;;;;;;;;;;;8.80;81.30;;;;;;5115042;28;19998;-68
2023/11/08 02:41:35;;;;;;;;;;;8.80;81.30;;;;;;5113529;28;19920;-68
2023/11/08 02:44:02;;;;;;;;;;;8.80;81.10;;;;;;5115279;28;19915;-68
2023/11/08 02:46:28;;;;;;;;;;;8.80;81.20;;;;;;5114120;28;19964;-69
2023/11/08 02:48:57;;;;;;;;;;;8.80;81.20;;;;;;5114950;28;19915;-67
2023/11/08 02:51:43;;;;;;;;;;;8.80;81.30;;;;;;5114656;28;20018;-68
2023/11/08 02:54:09;;;;;;;;;;;8.80;81.00;;;;;;5113879;28;20521;-68
2023/11/08 02:56:54;;;;;;;;;;;8.80;81.00;;;;;;5113777;28;19923;-67
2023/11/08 02:59:20;;;;;;;;;;;8.80;81.10;;;;;;5114774;28;19916;-69
2023/11/08 03:01:48;;;;;;;;;;;8.90;81.20;;;;;;5114629;28;19920;-69
2023/11/08 03:04:14;;;;;;;;;;;8.90;81.40;;;;;;5113534;28;20025;-67
2023/11/08 03:06:42;;;;;;;;;;;8.90;81.10;;;;;;5113488;28;19920;-68
2023/11/08 03:09:08;;;;;;;;;;;9.00;81.00;;;;;;5096104;28;19922;-69
2023/11/08 03:11:36;;;;;;;;;;;9.10;81.00;;;;;;5112800;28;19919;-69
2023/11/08 03:14:02;;;;;;;;;;;9.10;80.90;;;;;;5114702;28;19958;-68
2023/11/08 03:16:27;;;;;;;;;;;9.10;80.80;;;;;;5113178;28;19926;-68
2023/11/08 03:18:53;;;;;;;;;;;9.20;80.70;;;;;;5096262;28;20482;-68
2023/11/08 03:21:19;;;;;;;;;;;9.20;80.80;;;;;;5095778;28;19942;-68
2023/11/08 03:23:45;;;;;;;;;;;9.10;81.00;;;;;;5113211;28;19966;-68
2023/11/08 03:26:12;;;;;;;;;;;9.10;81.10;;;;;;5114356;28;19920;-69
2023/11/08 03:28:39;;;;;;;;;;;9.10;81.20;;;;;;5096270;28;19912;-69
2023/11/08 03:31:07;;;;;;;;;;;9.00;81.30;;;;;;5113812;27;20342;-68
2023/11/08 03:33:33;;;;;;;;;;;9.00;81.40;;;;;;5113075;28;19912;-67
2023/11/08 03:36:00;;;;;;;;;;;9.00;81.70;;;;;;5096125;28;19919;-67
2023/11/08 03:38:26;;;;;;;;;;;8.90;82.00;;;;;;5113913;28;19920;-69
2023/11/08 03:40:51;;;;;;;;;;;8.90;82.40;;;;;;5113104;28;19920;-67
2023/11/08 03:43:18;;;;;;;;;;;8.90;82.40;;;;;;5114073;28;19916;-67
2023/11/08 03:45:44;;;;;;;;;;;8.90;82.30;;;;;;5112805;28;19920;-69
2023/11/08 03:48:09;;;;;;;;;;;8.90;81.70;;;;;;5112753;28;19919;-68
2023/11/08 03:50:38;;;;;;;;;;;9.00;82.00;;;;;;5113209;28;19915;-68
2023/11/08 03:53:06;;;;;;;;;;;9.00;81.80;;;;;;5113786;28;19926;-68
2023/11/08 03:55:32;;;;;;;;;;;8.90;81.50;;;;;;5095657;28;20334;-67
2023/11/08 03:57:59;;;;;;;;;;;8.90;81.00;;;;;;5112533;28;19998;-68
2023/11/08 04:00:27;;;;;;;;;;;8.90;81.60;;;;;;5094858;28;19927;-69
2023/11/08 04:02:53;;;;;;;;;;;8.80;81.60;;;;;;5112620;28;19960;-67
2023/11/08 04:05:19;;;;;;;;;;;8.80;81.40;;;;;;5112437;28;19918;-68
2023/11/08 04:07:46;;;;;;;;;;;8.80;81.50;;;;;;5114048;28;19919;-68
2023/11/08 04:10:14;;;;;;;;;;;8.90;81.70;;;;;;5111548;28;19968;-68
2023/11/08 04:12:39;;;;;;;;;;;8.90;81.80;;;;;;5114119;28;20273;-69
2023/11/08 04:15:07;;;;;;;;;;;8.80;81.60;;;;;;5113686;28;20010;-68
2023/11/08 04:17:33;;;;;;;;;;;8.80;81.70;;;;;;5113408;28;20014;-67
2023/11/08 04:19:59;;;;;;;;;;;8.80;81.90;;;;;;5112268;28;19998;-68
2023/11/08 04:22:25;;;;;;;;;;;8.80;82.10;;;;;;5113415;28;19924;-69
2023/11/08 04:24:51;;;;;;;;;;;8.70;82.40;;;;;;5112482;28;19918;-68
2023/11/08 04:27:18;;;;;;;;;;;8.70;82.50;;;;;;5113189;28;20061;-69
2023/11/08 04:29:43;;;;;;;;;;;8.60;82.40;;;;;;5112236;28;20022;-69
2023/11/08 04:32:09;;;;;;;;;;;8.60;82.40;;;;;;5111563;28;20361;-69
2023/11/08 04:34:35;;;;;;;;;;;8.50;82.50;;;;;;5113318;28;20006;-68
2023/11/08 04:37:05;;;;;;;;;;;8.50;82.40;;;;;;5111807;28;20291;-68
2023/11/08 04:39:31;;;;;;;;;;;8.40;82.40;;;;;;5111909;28;19957;-69
2023/11/08 04:41:57;;;;;;;;;;;8.40;82.50;;;;;;5111585;28;19927;-68
2023/11/08 04:44:23;;;;;;;;;;;8.30;82.20;;;;;;5112212;28;19916;-69
2023/11/08 04:46:48;;;;;;;;;;;8.30;81.90;;;;;;5113404;28;19954;-67
2023/11/08 04:49:14;;;;;;;;;;;8.30;81.90;;;;;;5113146;28;20107;-69
2023/11/08 04:51:40;;;;;;;;;;;8.20;81.80;;;;;;5113227;28;19923;-69
2023/11/08 04:54:06;;;;;;;;;;;8.10;81.90;;;;;;5116331;28;19969;-67
2023/11/08 04:56:32;;;;;;;;;;;8.10;81.40;;;;;;5115935;28;19927;-69
2023/11/08 04:58:58;;;;;;;;;;;8.10;82.00;;;;;;5116119;28;19912;-67
2023/11/08 05:01:28;;;;;;;;;;;8.00;81.80;;;;;;5116875;28;19920;-68
2023/11/08 05:03:55;;;;;;;;;;;8.00;81.70;;;;;;5117282;28;19947;-67
2023/11/08 05:06:21;;;;;;;;;;;7.90;81.80;;;;;;5115919;28;19959;-67
2023/11/08 05:08:47;;;;;;;;;;;7.80;81.10;;;;;;5115487;28;19916;-69
2023/11/08 05:11:13;;;;;;;;;;;7.80;81.00;;;;;;5116544;27;19972;-69
2023/11/08 05:13:39;;;;;;;;;;;7.70;81.30;;;;;;5115630;28;19916;-68
2023/11/08 05:16:05;;;;;;;;;;;7.60;81.50;;;;;;5117032;28;19998;-67
2023/11/08 05:18:31;;;;;;;;;;;7.60;80.90;;;;;;5115373;28;20277;-68
2023/11/08 05:20:57;;;;;;;;;;;7.60;81.30;;;;;;5116248;28;19916;-67
2023/11/08 05:23:22;;;;;;;;;;;7.70;81.20;;;;;;5115392;28;19916;-69
2023/11/08 05:25:50;;;;;;;;;;;7.70;81.30;;;;;;5116793;28;20070;-69
2023/11/08 05:28:16;;;;;;;;;;;7.80;81.10;;;;;;5116613;28;20291;-68
2023/11/08 05:30:42;;;;;;;;;;;7.70;81.10;;;;;;5116162;28;19916;-69
2023/11/08 05:33:09;;;;;;;;;;;7.80;81.10;;;;;;5098426;28;20006;-67
2023/11/08 05:35:37;;;;;;;;;;;7.80;81.00;;;;;;5106639;28;19964;-67
2023/11/08 05:38:04;;;;;;;;;;;7.90;81.10;;;;;;5099969;28;19919;-68
2023/11/08 05:40:30;;;;;;;;;;;7.90;80.70;;;;;;5095142;28;19946;-69
2023/11/08 05:42:56;;;;;;;;;;;7.90;80.90;;;;;;5094947;28;20315;-69
2023/11/08 05:45:22;;;;;;;;;;;8.00;80.80;;;;;;5095885;28;19969;-69
2023/11/08 05:47:48;;;;;;;;;;;8.00;80.70;;;;;;5096121;28;20308;-68
2023/11/08 05:50:14;;;;;;;;;;;8.10;80.80;;;;;;5093932;28;19912;-68
2023/11/08 05:52:40;;;;;;;;;;;8.10;81.00;;;;;;5096500;28;20356;-69
2023/11/08 05:55:07;;;;;;;;;;;8.10;81.10;;;;;;5077592;28;20007;-68
2023/11/08 05:57:33;;;;;;;;;;;8.10;81.10;;;;;;5094538;28;19920;-67
2023/11/08 06:00:05;;;;;;;;;;;8.10;81.40;;;;;;5095819;28;20007;-67
2023/11/08 06:02:31;;;;;;;;;;;8.10;81.50;;;;;;5109732;28;19968;-69
2023/11/08 06:04:57;;;;;;;;;;;8.10;81.70;;;;;;5077411;28;20011;-68
2023/11/08 06:07:23;;;;;;;;;;;8.10;81.70;;;;;;5094327;28;20020;-68
2023/11/08 06:09:50;;;;;;;;;;;8.10;81.70;;;;;;5094176;28;19980;-68
2023/11/08 06:12:15;;;;;;;;;;;8.10;81.60;;;;;;5093709;28;19932;-68
2023/11/08 06:14:42;;;;;;;;;;;8.10;81.40;;;;;;5095525;28;20297;-69
2023/11/08 06:17:08;;;;;;;;;;;8.00;81.20;;;;;;5094249;28;19981;-69
2023/11/08 06:19:34;;;;;;;;;;;8.10;81.20;;;;;;5093946;28;19912;-69
2023/11/08 06:22:01;;;;;;;;;;;8.10;80.90;;;;;;5095038;28;19920;-68
2023/11/08 06:24:27;;;;;;;;;;;8.10;80.90;;;;;;5094114;28;20455;-69
2023/11/08 06:26:53;;;;;;;;;;;8.10;80.90;;;;;;5095387;28;19959;-69
2023/11/08 06:29:19;;;;;;;;;;;8.10;80.90;;;;;;5093894;28;19912;-69
2023/11/08 06:31:45;;;;;;;;;;;8.20;80.90;;;;;;5094762;28;20023;-69
2023/11/08 06:34:13;;;;;;;;;;;8.20;80.60;;;;;;5095118;28;20011;-67
2023/11/08 06:36:38;;;;;;;;;;;8.30;80.50;;;;;;5093626;28;20266;-69
2023/11/08 06:39:04;;;;;;;;;;;8.40;80.40;;;;;;5094729;28;19922;-68
2023/11/08 06:41:30;;;;;;;;;;;8.40;80.00;;;;;;5094704;28;19942;-69
2023/11/08 06:43:56;;;;;;;;;;;8.40;79.90;;;;;;5094987;28;19970;-67
2023/11/08 06:46:22;;;;;;;;;;;8.50;80.00;;;;;;5108747;28;19924;-68
2023/11/08 06:48:49;;;;;;;;;;;8.50;79.60;;;;;;5114974;28;19912;-69
2023/11/08 06:51:15;;;;;;;;;;;8.50;79.50;;;;;;5099251;28;19959;-69
2023/11/08 06:53:41;;;;;;;;;;;8.60;79.70;;;;;;5094455;28;20381;-68
2023/11/08 06:56:07;;;;;;;;;;;8.70;79.70;;;;;;5094671;28;20019;-68
2023/11/08 06:58:33;;;;;;;;;;;8.70;79.60;;;;;;5094588;28;20373;-68
2023/11/08 07:03:45;;;;;;;;;;;8.90;79.30;;;;;;5093848;28;20289;-69
2023/11/08 07:06:10;;;;;;;;;;;9.00;79.30;;;;;;5094529;28;19938;-69
2023/11/08 07:08:36;;;;;;;;;;;9.00;79.40;;;;;;5094083;28;19958;-69
2023/11/08 07:11:02;;;;;;;;;;;9.10;79.20;;;;;;5092368;28;19930;-68
2023/11/08 07:13:28;;;;;;;;;;;9.20;78.90;;;;;;5092934;28;19958;-68
2023/11/08 07:15:54;;;;;;;;;;;9.20;78.90;;;;;;5093612;28;20388;-68
2023/11/08 07:18:20;;;;;;;;;;;9.30;79.80;;;;;;5092899;28;20338;-68
2023/11/08 07:20:46;;;;;;;;;;;9.40;78.00;;;;;;5093557;28;20357;-67
2023/11/08 07:23:12;;;;;;;;;;;9.50;78.50;;;;;;5092890;28;20015;-68
2023/11/08 07:25:38;;;;;;;;;;;9.50;78.50;;;;;;5094108;28;19912;-67
2023/11/08 07:28:05;;;;;;;;;;;9.50;78.50;;;;;;5093949;28;20276;-69
2023/11/08 07:30:31;;;;;;;;;;;9.60;78.60;;;;;;5093315;28;19927;-69
2023/11/08 07:32:57;;;;;;;;;;;9.60;78.40;;;;;;5094096;28;19920;-69
2023/11/08 07:35:23;;;;;;;;;;;9.60;78.60;;;;;;5093712;28;20395;-69
2023/11/08 07:37:49;;;;;;;;;;;9.70;78.60;;;;;;5093801;28;19920;-69
2023/11/08 07:40:15;;;;;;;;;;;9.80;78.50;;;;;;5092892;28;19999;-69
2023/11/08 07:42:41;;;;;;;;;;;9.80;78.50;;;;;;5094264;28;20258;-68
2023/11/08 07:45:08;;;;;;;;;;;9.90;78.50;;;;;;5092418;28;20003;-68
2023/11/08 07:47:34;;;;;;;;;;;10.00;78.60;;;;;;5092610;28;20014;-68
2023/11/08 07:50:03;;;;;;;;;;;10.20;78.30;;;;;;5092335;28;19927;-68
2023/11/08 07:52:29;;;;;;;;;;;10.30;78.10;;;;;;5092234;28;19916;-69
2023/11/08 07:54:55;;;;;;;;;;;10.40;77.80;;;;;;5093812;28;19916;-67
2023/11/08 07:57:20;;;;;;;;;;;10.50;77.80;;;;;;5093533;28;19923;-69
2023/11/08 07:59:49;;;;;;;;;;;10.70;77.70;;;;;;5093745;28;19957;-67
2023/11/08 08:02:15;;;;;;;;;;;10.80;77.60;;;;;;5093278;28;20369;-69
2023/11/08 08:04:41;;;;;;;;;;;10.80;77.30;;;;;;5093424;28;19958;-68
2023/11/08 08:07:08;;;;;;;;;;;11.00;77.20;;;;;;5092261;28;19920;-67
2023/11/08 08:09:34;;;;;;;;;;;11.10;76.70;;;;;;5093229;28;20399;-68
2023/11/08 08:12:00;;;;;;;;;;;11.10;76.80;;;;;;5091453;28;19974;-69
2023/11/08 08:14:26;;;;;;;;;;;11.00;76.40;;;;;;5093238;28;19916;-68
2023/11/08 08:16:52;;;;;;;;;;;10.90;76.40;;;;;;5092052;28;20335;-67
2023/11/08 08:19:18;;;;;;;;;;;11.00;76.60;;;;;;5091939;28;20006;-69
2023/11/08 08:21:44;;;;;;;;;;;11.10;76.30;;;;;;5091334;28;20011;-68
2023/11/08 08:24:10;;;;;;;;;;;11.30;76.60;;;;;;5093065;28;19919;-67
2023/11/08 08:26:36;;;;;;;;;;;11.40;75.30;;;;;;5092879;28;19924;-68
2023/11/08 08:29:02;;;;;;;;;;;11.50;76.00;;;;;;5091673;28;19912;-68
2023/11/08 08:31:28;;;;;;;;;;;11.50;75.60;;;;;;5093482;28;19947;-67
2023/11/08 08:36:40;;;;;;;;;;;11.70;75.20;;;;;;5091669;28;20390;-69
2023/11/08 08:39:06;;;;;;;;;;;11.80;75.40;;;;;;5091418;28;20007;-69
2023/11/08 08:41:32;;;;;;;;;;;11.90;75.40;;;;;;5091083;28;19920;-68
2023/11/08 08:43:58;;;;;;;;;;;12.00;75.30;;;;;;5074907;28;19958;-69
2023/11/08 08:46:24;;;;;;;;;;;12.20;75.00;;;;;;5074834;28;19935;-68
2023/11/08 08:48:51;;;;;;;;;;;12.40;74.30;;;;;;5092692;28;20003;-68
2023/11/08 08:51:17;;;;;;;;;;;12.40;74.40;;;;;;5090837;28;20289;-68
2023/11/08 08:53:44;;;;;;;;;;;12.70;73.80;;;;;;5092796;28;19976;-68
2023/11/08 08:56:11;;;;;;;;;;;12.80;73.00;;;;;;5092802;28;19927;-68
2023/11/08 08:58:37;;;;;;;;;;;13.10;72.30;;;;;;5091580;28;19918;-68
2023/11/08 09:01:04;;;;;;;;;;;13.20;72.40;;;;;;5092123;28;19947;-68
2023/11/08 09:03:30;;;;;;;;;;;13.50;71.80;;;;;;5091482;28;19969;-68
2023/11/08 09:05:57;;;;;;;;;;;13.60;70.90;;;;;;5091339;28;19973;-68
2023/11/08 09:08:23;;;;;;;;;;;13.80;70.30;;;;;;5092491;28;19954;-68
2023/11/08 09:10:48;;;;;;;;;;;14.10;70.40;;;;;;5090617;28;20357;-68
2023/11/08 09:13:14;;;;;;;;;;;14.70;68.20;;;;;;5092626;28;20010;-68
2023/11/08 09:15:40;;;;;;;;;;;14.30;67.40;;;;;;5092704;28;19918;-68
2023/11/08 09:18:06;;;;;;;;;;;14.00;68.50;;;;;;5092472;28;20007;-69
2023/11/08 09:20:32;;;;;;;;;;;14.10;69.00;;;;;;5073962;28;19920;-68
2023/11/08 09:23:00;;;;;;;;;;;14.10;68.80;;;;;;5092465;28;20377;-69
2023/11/08 09:25:26;;;;;;;;;;;14.10;68.50;;;;;;5092396;28;19942;-69
2023/11/08 09:27:52;;;;;;;;;;;14.00;69.00;;;;;;5091374;28;19916;-69
2023/11/08 09:30:18;;;;;;;;;;;14.00;68.10;;;;;;5091939;28;20429;-68
2023/11/08 09:32:45;;;;;;;;;;;14.00;68.10;;;;;;5091586;28;20284;-68
2023/11/08 09:35:11;;;;;;;;;;;14.00;67.80;;;;;;5091012;28;19920;-68
2023/11/08 09:37:36;;;;;;;;;;;13.70;68.40;;;;;;5091689;28;19938;-68
2023/11/08 09:40:09;;;;;;;;;;;13.60;68.90;;;;;;5095673;28;19927;-68
2023/11/08 09:42:35;;;;;;;;;;;13.50;68.70;;;;;;5102972;28;19915;-68
2023/11/08 09:45:02;;;;;;;;;;;13.50;69.20;;;;;;5087907;28;20012;-68
2023/11/08 09:47:28;;;;;;;;;;;13.40;69.00;;;;;;5094125;28;19916;-68
2023/11/08 09:49:55;;;;;;;;;;;13.40;69.50;;;;;;5096333;28;20046;-69
2023/11/08 09:52:22;;;;;;;;;;;13.40;69.20;;;;;;5094308;28;20448;-68
2023/11/08 09:54:47;;;;;;;;;;;13.50;69.80;;;;;;5111804;28;19915;-68
2023/11/08 09:57:15;;;;;;;;;;;13.50;69.40;;;;;;5094152;28;20400;-68
2023/11/08 09:59:41;;;;;;;;;;;13.60;69.20;;;;;;5112904;28;19938;-68
2023/11/08 10:02:12;;;;;;;;;;;13.50;69.20;;;;;;5114091;28;19915;-69
2023/11/08 10:04:41;;;;;;;;;;;13.70;68.70;;;;;;5114932;28;19916;-68
2023/11/08 10:07:07;;;;;;;;;;;13.80;67.70;;;;;;5114804;28;19915;-68
2023/11/08 10:09:36;;;;;;;;;;;13.90;68.30;;;;;;5115779;28;20288;-68
2023/11/08 10:12:08;;;;;;;;;;;14.50;66.60;;;;;;5114039;28;19916;-68
2023/11/08 10:14:36;;;;;;;;;;;14.60;65.50;;;;;;5116001;28;20361;-68
2023/11/08 10:17:03;;;;;;;;;;;14.40;66.30;;;;;;5097652;28;20455;-67
2023/11/08 10:19:48;;;;;;;;;;;14.30;67.10;;;;;;5114373;28;19920;-68
2023/11/08 10:22:19;;;;;;;;;;;14.30;68.00;;;;;;5113839;28;19915;-68
2023/11/08 10:24:56;;;;;;;;;;;14.30;67.70;;;;;;5114521;28;19919;-69
2023/11/08 10:27:22;;;;;;;;;;;14.40;67.00;;;;;;5097450;28;19916;-69
2023/11/08 10:29:50;;;;;;;;;;;14.60;66.20;;;;;;5114184;28;19916;-68
2023/11/08 10:32:36;;;;;;;;;;;14.70;65.90;;;;;;5093159;28;20105;-69
2023/11/08 10:35:21;;;;;;;;;;;14.80;65.60;;;;;;5114294;28;20261;-68
2023/11/08 10:37:48;;;;;;;;;;;15.00;65.20;;;;;;5114254;28;20385;-68
2023/11/08 10:40:15;;;;;;;;;;;15.10;64.40;;;;;;5113350;28;19918;-68
2023/11/08 10:43:07;;;;;;;;;;;15.30;62.60;;;;;;5114206;28;19920;-68
2023/11/08 10:45:33;;;;;;;;;;;15.40;61.40;;;;;;5113949;28;20386;-67
2023/11/08 10:48:00;;;;;;;;;;;16.20;58.80;;;;;;5115194;28;20331;-68
2023/11/08 10:50:27;;;;;;;;;;;16.50;57.20;;;;;;5111833;28;20341;-68
2023/11/08 10:52:53;;;;;;;;;;;16.50;55.00;;;;;;5113746;28;19916;-69
2023/11/08 10:55:25;;;;;;;;;;;16.10;56.50;;;;;;5096889;28;19964;-68
2023/11/08 10:57:53;;;;;;;;;;;16.00;57.50;;;;;;5114957;28;19955;-69
2023/11/08 11:00:20;;;;;;;;;;;16.00;55.70;;;;;;5110441;28;19915;-68
2023/11/08 11:03:25;;;;;;;;;;;15.90;55.40;;;;;;5097039;28;19919;-68
2023/11/08 11:05:52;;;;;;;;;;;16.10;52.40;;;;;;5114881;28;19924;-68
2023/11/08 11:08:19;;;;;;;;;;;15.90;53.80;;;;;;5113255;28;19911;-68
2023/11/08 11:10:46;;;;;;;;;;;16.40;53.40;;;;;;5095866;28;20326;-69
2023/11/08 11:13:32;;;;;;;;;;;17.50;50.30;;;;;;5096347;28;19915;-69
2023/11/08 11:16:19;;;;;;;;;;;18.30;46.70;;;;;;5114759;28;19922;-69
2023/11/08 11:18:47;;;;;;;;;;;19.80;43.40;;;;;;5096159;28;19923;-68
2023/11/08 11:21:51;;;;;;;;;;;19.40;43.60;;;;;;5112734;28;19922;-68
2023/11/08 11:24:36;;;;;;;;;;;18.40;46.90;;;;;;5114465;28;19926;-69
2023/11/08 11:27:03;;;;;;;;;;;17.90;46.90;;;;;;5113229;28;20003;-68
2023/11/08 11:29:30;;;;;;;;;;;17.90;46.90;;;;;;5111747;28;20010;-67
2023/11/08 11:31:57;;;;;;;;;;;17.80;47.90;;;;;;5113468;28;19919;-68
2023/11/08 11:34:26;;;;;;;;;;;17.40;47.30;;;;;;5114597;28;20349;-68
2023/11/08 11:37:12;;;;;;;;;;;17.20;49.30;;;;;;5114453;28;20293;-68
2023/11/08 11:39:41;;;;;;;;;;;17.20;49.20;;;;;;5112770;28;20019;-68
2023/11/08 11:42:28;;;;;;;;;;;17.50;48.40;;;;;;5112672;28;19959;-68
2023/11/08 11:44:57;;;;;;;;;;;17.70;47.20;;;;;;5112917;28;19912;-68
2023/11/08 11:47:30;;;;;;;;;;;17.40;48.10;;;;;;5112948;28;20415;-68
2023/11/08 11:50:01;;;;;;;;;;;17.30;47.60;;;;;;5112751;28;19969;-68
2023/11/08 11:52:31;;;;;;;;;;;17.20;48.70;;;;;;5095650;28;20372;-69
2023/11/08 11:54:58;;;;;;;;;;;16.90;48.40;;;;;;5114218;28;20026;-68
2023/11/08 11:57:25;;;;;;;;;;;16.80;48.10;;;;;;5112660;28;19950;-68
2023/11/08 12:00:10;;;;;;;;;;;16.80;48.80;;;;;;5112545;28;20273;-69
2023/11/08 12:02:37;;;;;;;;;;;16.90;49.70;;;;;;5112433;28;19927;-68
2023/11/08 12:05:05;;;;;;;;;;;16.90;48.20;;;;;;5113873;28;19935;-68
2023/11/08 12:07:31;;;;;;;;;;;17.40;47.90;;;;;;5112591;28;19919;-68
2023/11/08 12:10:01;;;;;;;;;;;17.30;44.30;;;;;;5113465;28;19916;-68
2023/11/08 12:12:47;;;;;;;;;;;17.30;44.90;;;;;;5112120;28;19920;-68
2023/11/08 12:15:14;;;;;;;;;;;17.30;45.70;;;;;;5112450;28;20283;-68
2023/11/08 12:17:40;;;;;;;;;;;17.70;45.60;;;;;;5113941;28;20321;-68
2023/11/08 12:20:07;;;;;;;;;;;18.40;42.00;;;;;;5111628;28;19919;-69
2023/11/08 12:22:33;;;;;;;;;;;18.10;42.90;;;;;;5113973;28;20288;-68
2023/11/08 12:24:59;;;;;;;;;;;17.60;43.30;;;;;;5113594;28;19912;-69
2023/11/08 12:27:25;;;;;;;;;;;17.40;44.70;;;;;;5113736;28;20002;-68
2023/11/08 12:29:51;;;;;;;;;;;17.40;44.80;;;;;;5112261;28;20010;-68
2023/11/08 12:32:17;;;;;;;;;;;18.30;43.50;;;;;;5113298;27;20002;-69
2023/11/08 12:34:43;;;;;;;;;;;19.70;38.90;;;;;;5112283;28;19923;-68
2023/11/08 12:37:10;;;;;;;;;;;20.40;38.50;;;;;;5111870;28;19924;-68
2023/11/08 12:39:36;;;;;;;;;;;20.70;36.70;;;;;;5113013;28;19916;-68
2023/11/08 12:42:02;;;;;;;;;;;20.30;36.20;;;;;;5111535;28;19973;-69
2023/11/08 12:44:46;;;;;;;;;;;19.80;37.00;;;;;;5112040;28;19911;-68
2023/11/08 12:47:12;;;;;;;;;;;19.00;37.60;;;;;;5113671;28;19950;-69
2023/11/08 12:49:38;;;;;;;;;;;18.90;37.60;;;;;;5113062;28;19912;-68
2023/11/08 12:52:23;;;;;;;;;;;19.40;36.50;;;;;;5111556;28;19952;-68
2023/11/08 12:54:56;;;;;;;;;;;19.50;37.40;;;;;;5112157;28;19937;-68
2023/11/08 12:57:41;;;;;;;;;;;19.10;36.30;;;;;;5113448;28;20422;-69
2023/11/08 13:00:07;;;;;;;;;;;19.60;36.90;;;;;;5112490;28;20304;-68
2023/11/08 13:02:33;;;;;;;;;;;20.00;35.90;;;;;;5112938;28;19931;-68
2023/11/08 13:05:00;;;;;;;;;;;20.00;35.90;;;;;;5111854;28;20372;-68
2023/11/08 13:07:26;;;;;;;;;;;20.40;36.20;;;;;;5113353;28;20014;-68
2023/11/08 13:09:52;;;;;;;;;;;20.80;34.80;;;;;;5112931;28;20356;-68
2023/11/08 13:12:18;;;;;;;;;;;21.80;35.00;;;;;;5111017;28;19923;-68
2023/11/08 13:14:47;;;;;;;;;;;25.00;30.50;;;;;;5117085;28;19922;-69
2023/11/08 13:17:14;;;;;;;;;;;27.60;24.80;;;;;;5115656;28;19916;-69
2023/11/08 13:19:39;;;;;;;;;;;28.80;23.50;;;;;;5115463;28;19915;-68
2023/11/08 13:22:05;;;;;;;;;;;30.50;23.00;;;;;;5116186;28;19926;-69
2023/11/08 13:24:31;;;;;;;;;;;31.50;20.70;;;;;;5115814;28;20219;-68
2023/11/08 13:26:57;;;;;;;;;;;32.00;20.80;;;;;;5117089;28;19915;-68
2023/11/08 13:29:23;;;;;;;;;;;32.40;20.80;;;;;;5116750;28;19916;-68
2023/11/08 13:31:49;;;;;;;;;;;31.80;20.60;;;;;;5116509;27;20018;-68
2023/11/08 13:34:15;;;;;;;;;;;31.80;20.50;;;;;;5098461;28;19916;-69
2023/11/08 13:36:42;;;;;;;;;;;32.60;19.50;;;;;;5115186;28;19916;-68
2023/11/08 13:39:09;;;;;;;;;;;33.10;18.70;;;;;;5115235;28;19919;-68
2023/11/08 13:41:35;;;;;;;;;;;33.80;18.50;;;;;;5115863;28;20020;-68
2023/11/08 13:44:01;;;;;;;;;;;33.40;17.80;;;;;;5116536;27;19915;-68
2023/11/08 13:46:28;;;;;;;;;;;33.00;18.60;;;;;;5116368;28;20006;-68
2023/11/08 13:48:54;;;;;;;;;;;31.50;20.10;;;;;;5116309;28;19915;-68
2023/11/08 13:51:19;;;;;;;;;;;30.40;21.00;;;;;;5114290;28;19922;-68
2023/11/08 13:53:45;;;;;;;;;;;29.30;21.70;;;;;;5108692;28;20014;-69
2023/11/08 13:56:12;;;;;;;;;;;28.20;22.40;;;;;;5116241;28;19973;-68
2023/11/08 13:58:37;;;;;;;;;;;26.90;24.00;;;;;;5110193;28;19916;-68
2023/11/08 14:01:09;;;;;;;;;;;25.80;25.00;;;;;;5102243;28;19920;-68
2023/11/08 14:03:35;;;;;;;;;;;24.80;26.90;;;;;;5091148;28;19916;-68
2023/11/08 14:06:01;;;;;;;;;;;24.00;27.70;;;;;;5104894;28;19926;-68
2023/11/08 14:08:27;;;;;;;;;;;23.10;27.40;;;;;;5096164;28;19961;-68
2023/11/08 14:10:53;;;;;;;;;;;22.60;29.00;;;;;;5093636;28;19927;-68
2023/11/08 14:13:19;;;;;;;;;;;22.00;29.20;;;;;;5095444;28;19922;-68
2023/11/08 14:15:45;;;;;;;;;;;21.60;30.00;;;;;;5095555;28;19974;-68
2023/11/08 14:18:10;;;;;;;;;;;21.20;30.60;;;;;;5095350;28;20011;-68
2023/11/08 14:20:36;;;;;;;;;;;20.80;31.30;;;;;;5093339;28;19958;-68
2023/11/08 14:23:02;;;;;;;;;;;20.50;31.60;;;;;;5094238;28;19920;-68
2023/11/08 14:25:28;;;;;;;;;;;20.10;32.50;;;;;;5095057;28;20002;-68
2023/11/08 14:27:54;;;;;;;;;;;19.70;34.40;;;;;;5095442;28;20015;-68
2023/11/08 14:30:20;;;;;;;;;;;19.40;34.00;;;;;;5094587;28;19919;-69